Time;durP1;ratioP1;P1;durP2;ratioP2;P2;SDS_P1;SDS_P2;PMS_P1;PMS_P2;Temp;Humidity;BMP_temperature;BMP_pressure;BME280_temperature;BME280_humidity;BME280_pressure;Samples;Min_cycle;Max_cycle;Signal;HPM_P1;HPM_P2
2023/12/29 00:01:13;;;;;;;3.55;1.60;;;;;;;;;;5038464;28;20087;-66
2023/12/29 00:03:38;;;;;;;2.80;2.03;;;;;;;;;;5038219;28;20120;-67
2023/12/29 00:06:04;;;;;;;2.10;1.35;;;;;;;;;;5039073;28;20045;-65
2023/12/29 00:08:31;;;;;;;1.20;1.10;;;;;;;;;;5039087;28;20053;-65
2023/12/29 00:10:56;;;;;;;7.22;4.13;;;;;;;;;;5036884;28;20043;-63
2023/12/29 00:13:23;;;;;;;7.95;4.93;;;;;;;;;;5039042;28;20040;-67
2023/12/29 00:15:52;;;;;;;11.10;5.70;;;;;;;;;;5038563;28;20049;-64
2023/12/29 00:18:18;;;;;;;5.93;3.63;;;;;;;;;;5038642;28;20124;-64
2023/12/29 00:20:43;;;;;;;7.25;3.60;;;;;;;;;;5038582;28;20489;-64
2023/12/29 00:23:09;;;;;;;7.18;4.47;;;;;;;;;;5037271;28;20060;-67
2023/12/29 00:25:37;;;;;;;9.95;4.90;;;;;;;;;;5037812;28;20049;-66
2023/12/29 00:28:04;;;;;;;7.60;3.33;;;;;;;;;;5038818;28;20041;-66
2023/12/29 00:30:29;;;;;;;9.95;5.40;;;;;;;;;;5036331;28;20046;-66
2023/12/29 00:32:55;;;;;;;9.07;4.00;;;;;;;;;;5035866;28;20530;-66
2023/12/29 00:35:21;;;;;;;8.23;4.75;;;;;;;;;;5036649;28;20037;-67
2023/12/29 00:37:46;;;;;;;5.72;2.90;;;;;;;;;;5020585;28;20063;-67
2023/12/29 00:40:12;;;;;;;4.78;3.13;;;;;;;;;;5036811;28;20740;-65
2023/12/29 00:42:38;;;;;;;3.28;2.50;;;;;;;;;;5036509;28;20415;-66
2023/12/29 00:45:05;;;;;;;2.95;1.95;;;;;;;;;;5036618;28;20591;-67
2023/12/29 00:47:30;;;;;;;2.25;1.50;;;;;;;;;;5036393;28;20049;-63
2023/12/29 00:49:56;;;;;;;2.25;1.67;;;;;;;;;;5036190;28;20138;-66
2023/12/29 00:52:21;;;;;;;1.88;1.67;;;;;;;;;;5036723;28;20072;-66
2023/12/29 00:54:47;;;;;;;1.88;1.42;;;;;;;;;;5035267;28;20141;-65
2023/12/29 00:57:12;;;;;;;2.33;1.65;;;;;;;;;;5052609;28;20057;-66
2023/12/29 00:59:40;;;;;;;2.08;1.60;;;;;;;;;;5033958;28;20052;-64
2023/12/29 01:02:07;;;;;;;2.22;1.70;;;;;;;;;;5022737;28;20530;-66
2023/12/29 01:04:33;;;;;;;3.28;1.60;;;;;;;;;;5039901;28;20056;-66
2023/12/29 01:06:59;;;;;;;1.95;1.75;;;;;;;;;;5038003;28;20131;-65
2023/12/29 01:09:26;;;;;;;2.97;2.03;;;;;;;;;;5057768;28;20515;-64
2023/12/29 01:11:51;;;;;;;2.25;1.67;;;;;;;;;;5057123;28;20056;-64
2023/12/29 01:14:17;;;;;;;3.58;2.10;;;;;;;;;;5057268;28;20052;-65
2023/12/29 01:16:42;;;;;;;2.85;1.80;;;;;;;;;;5037792;28;20048;-64
2023/12/29 01:19:09;;;;;;;2.17;1.73;;;;;;;;;;5027432;28;20054;-66
2023/12/29 01:21:37;;;;;;;3.75;1.70;;;;;;;;;;5057469;28;20052;-66
2023/12/29 01:24:07;;;;;;;1.70;1.50;;;;;;;;;;5056396;28;20041;-64
2023/12/29 01:26:36;;;;;;;3.03;1.55;;;;;;;;;;5055966;28;20055;-66
2023/12/29 01:29:02;;;;;;;2.10;1.88;;;;;;;;;;5036979;28;20048;-66
2023/12/29 01:31:31;;;;;;;3.03;2.03;;;;;;;;;;5055166;28;20044;-68
2023/12/29 01:33:56;;;;;;;2.67;1.77;;;;;;;;;;5055323;28;20044;-67
2023/12/29 01:36:22;;;;;;;1.95;1.30;;;;;;;;;;5037500;28;20449;-67
2023/12/29 01:38:48;;;;;;;2.90;1.55;;;;;;;;;;5054833;28;20047;-66
2023/12/29 01:41:14;;;;;;;5.78;1.52;;;;;;;;;;5035853;28;20052;-63
2023/12/29 01:44:01;;;;;;;2.47;1.63;;;;;;;;;;5036775;28;20064;-66
2023/12/29 01:46:32;;;;;;;3.92;1.90;;;;;;;;;;5035518;28;20454;-65
2023/12/29 01:48:58;;;;;;;4.78;1.83;;;;;;;;;;5035467;28;20055;-65
2023/12/29 01:51:25;;;;;;;2.88;1.77;;;;;;;;;;5035398;28;20053;-66
2023/12/29 01:53:52;;;;;;;1.88;1.30;;;;;;;;;;5035092;28;20141;-63
2023/12/29 01:56:18;;;;;;;2.28;2.08;;;;;;;;;;5035613;28;20049;-66
2023/12/29 01:58:45;;;;;;;3.63;1.77;;;;;;;;;;5036455;28;20049;-63
2023/12/29 02:01:11;;;;;;;1.90;1.27;;;;;;;;;;5019390;28;20049;-66
2023/12/29 02:03:37;;;;;;;1.83;1.35;;;;;;;;;;5035567;28;20851;-63
2023/12/29 02:06:04;;;;;;;1.38;1.27;;;;;;;;;;5034597;28;20052;-64
2023/12/29 02:08:31;;;;;;;2.80;1.33;;;;;;;;;;5038179;28;20836;-65
2023/12/29 02:10:56;;;;;;;2.35;1.05;;;;;;;;;;5037797;28;20055;-65
2023/12/29 02:13:22;;;;;;;1.88;1.23;;;;;;;;;;5039957;28;20459;-65
2023/12/29 02:15:52;;;;;;;3.35;1.10;;;;;;;;;;5039621;28;20086;-63
2023/12/29 02:18:20;;;;;;;3.15;1.13;;;;;;;;;;5040977;28;20044;-65
2023/12/29 02:20:46;;;;;;;1.63;1.17;;;;;;;;;;5040202;28;20192;-64
2023/12/29 02:23:11;;;;;;;1.30;1.20;;;;;;;;;;5037634;28;20480;-65
2023/12/29 02:25:36;;;;;;;2.42;1.42;;;;;;;;;;5040359;28;20053;-62
2023/12/29 02:28:15;;;;;;;1.90;1.17;;;;;;;;;;5040355;28;20045;-65
2023/12/29 02:31:04;;;;;;;1.20;1.10;;;;;;;;;;5039042;28;20053;-66
2023/12/29 02:33:33;;;;;;;0.98;0.95;;;;;;;;;;5039247;28;20061;-65
2023/12/29 02:36:01;;;;;;;1.27;1.15;;;;;;;;;;5038270;28;20070;-66
2023/12/29 02:38:28;;;;;;;1.10;1.00;;;;;;;;;;5039399;28;20162;-63
2023/12/29 02:40:55;;;;;;;1.02;0.70;;;;;;;;;;5039422;28;20048;-63
2023/12/29 02:43:21;;;;;;;1.33;1.00;;;;;;;;;;5038352;28;21088;-65
2023/12/29 02:45:47;;;;;;;2.97;1.23;;;;;;;;;;5039851;28;20048;-64
2023/12/29 02:48:12;;;;;;;1.50;1.13;;;;;;;;;;5038685;28;20669;-64
2023/12/29 02:50:38;;;;;;;1.02;1.00;;;;;;;;;;5039477;28;20041;-67
2023/12/29 02:53:04;;;;;;;1.73;0.88;;;;;;;;;;5038789;28;20037;-67
2023/12/29 02:55:29;;;;;;;1.55;1.00;;;;;;;;;;5038421;28;20514;-67
2023/12/29 02:57:55;;;;;;;1.08;1.02;;;;;;;;;;5039642;28;20041;-66
2023/12/29 03:00:21;;;;;;;1.08;0.90;;;;;;;;;;5039526;28;20094;-66
2023/12/29 03:02:47;;;;;;;1.88;1.20;;;;;;;;;;5038367;28;20053;-66
2023/12/29 03:05:12;;;;;;;1.85;1.20;;;;;;;;;;5038726;28;20147;-67
2023/12/29 03:07:39;;;;;;;0.77;0.77;;;;;;;;;;5038756;28;20941;-66
2023/12/29 03:10:05;;;;;;;1.70;1.23;;;;;;;;;;5039359;28;20785;-67
2023/12/29 03:12:31;;;;;;;1.50;1.40;;;;;;;;;;5038235;28;20049;-66
2023/12/29 03:14:56;;;;;;;0.43;0.43;;;;;;;;;;5036855;28;20051;-65
2023/12/29 03:17:22;;;;;;;1.02;0.90;;;;;;;;;;5036965;28;20118;-64
2023/12/29 03:19:47;;;;;;;0.98;0.93;;;;;;;;;;5037390;28;20061;-65
2023/12/29 03:22:13;;;;;;;1.63;1.13;;;;;;;;;;5038349;28;20474;-64
2023/12/29 03:24:41;;;;;;;0.80;0.80;;;;;;;;;;5039281;28;20380;-62
2023/12/29 03:27:06;;;;;;;1.50;0.60;;;;;;;;;;5038391;28;20573;-64
2023/12/29 03:29:31;;;;;;;1.05;0.68;;;;;;;;;;5039156;28;20052;-65
2023/12/29 03:31:57;;;;;;;2.50;0.98;;;;;;;;;;5037487;28;20071;-63
2023/12/29 03:34:22;;;;;;;0.77;0.68;;;;;;;;;;5040609;28;20072;-66
2023/12/29 03:36:48;;;;;;;0.43;0.43;;;;;;;;;;5038728;28;20045;-64
2023/12/29 03:39:13;;;;;;;1.30;1.20;;;;;;;;;;5036844;28;20118;-65
2023/12/29 03:41:38;;;;;;;0.80;0.80;;;;;;;;;;5039375;28;20045;-64
2023/12/29 03:44:05;;;;;;;5.90;1.20;;;;;;;;;;5037050;28;20416;-62
2023/12/29 03:46:31;;;;;;;1.30;1.20;;;;;;;;;;5037404;28;20159;-64
2023/12/29 03:48:57;;;;;;;2.20;1.15;;;;;;;;;;5037620;28;20511;-62
2023/12/29 03:51:22;;;;;;;0.90;0.90;;;;;;;;;;5033772;28;20041;-62
2023/12/29 03:53:48;;;;;;;1.40;0.90;;;;;;;;;;5019485;28;20064;-64
2023/12/29 03:56:18;;;;;;;1.33;1.20;;;;;;;;;;5036605;28;20045;-65
2023/12/29 03:58:46;;;;;;;2.00;1.08;;;;;;;;;;5020033;28;20056;-64
2023/12/29 04:01:16;;;;;;;1.70;1.38;;;;;;;;;;5051137;28;20414;-65
2023/12/29 04:03:42;;;;;;;1.45;1.25;;;;;;;;;;5027836;28;20132;-64
2023/12/29 04:06:08;;;;;;;1.63;1.10;;;;;;;;;;5042224;28;20041;-65
2023/12/29 04:08:34;;;;;;;1.85;1.27;;;;;;;;;;5039022;28;20037;-64
2023/12/29 04:10:59;;;;;;;1.17;1.00;;;;;;;;;;5035741;28;20480;-65
2023/12/29 04:13:25;;;;;;;1.30;1.20;;;;;;;;;;5026542;28;20055;-63
2023/12/29 04:15:50;;;;;;;1.15;1.05;;;;;;;;;;5046268;28;20058;-64
2023/12/29 04:18:16;;;;;;;1.20;0.85;;;;;;;;;;5056754;28;20097;-64
2023/12/29 04:20:41;;;;;;;1.23;1.00;;;;;;;;;;5017700;28;20053;-62
2023/12/29 04:23:07;;;;;;;2.70;1.20;;;;;;;;;;5037429;28;20041;-62
2023/12/29 04:25:33;;;;;;;4.28;1.15;;;;;;;;;;5021879;28;20047;-64
2023/12/29 04:27:59;;;;;;;1.38;1.27;;;;;;;;;;5036337;28;20040;-62
2023/12/29 04:30:24;;;;;;;1.10;1.00;;;;;;;;;;5048231;28;20125;-66
2023/12/29 04:32:50;;;;;;;1.42;0.98;;;;;;;;;;5034672;28;20048;-69
2023/12/29 04:35:17;;;;;;;1.20;1.10;;;;;;;;;;5019372;28;20037;-64
2023/12/29 04:37:45;;;;;;;1.45;1.30;;;;;;;;;;5034826;28;20090;-66
2023/12/29 04:40:12;;;;;;;1.58;1.42;;;;;;;;;;5028185;28;20504;-65
2023/12/29 04:42:39;;;;;;;2.00;1.40;;;;;;;;;;5005309;28;20057;-65
2023/12/29 04:45:05;;;;;;;3.58;1.67;;;;;;;;;;5022600;28;20052;-65
2023/12/29 04:47:31;;;;;;;1.65;1.30;;;;;;;;;;5037822;28;20049;-62
2023/12/29 04:49:56;;;;;;;3.55;1.58;;;;;;;;;;5046953;28;20482;-64
2023/12/29 04:52:22;;;;;;;1.75;1.55;;;;;;;;;;5044727;28;20056;-65
2023/12/29 04:54:47;;;;;;;4.90;1.95;;;;;;;;;;5037507;28;20198;-66
2023/12/29 04:57:13;;;;;;;3.35;1.80;;;;;;;;;;5035657;28;20077;-65
2023/12/29 04:59:39;;;;;;;2.58;1.63;;;;;;;;;;5033413;28;20080;-64
2023/12/29 05:02:04;;;;;;;1.75;1.48;;;;;;;;;;5037011;28;20087;-65
2023/12/29 05:04:29;;;;;;;4.53;1.63;;;;;;;;;;5038431;28;20049;-63
2023/12/29 05:06:55;;;;;;;2.20;1.58;;;;;;;;;;5035846;28;20040;-62
2023/12/29 05:09:20;;;;;;;1.90;1.70;;;;;;;;;;5038104;28;20048;-66
2023/12/29 05:11:46;;;;;;;4.68;1.90;;;;;;;;;;5037224;28;20381;-66
2023/12/29 05:14:11;;;;;;;2.10;1.90;;;;;;;;;;5036715;28;20045;-63
2023/12/29 05:16:37;;;;;;;3.08;2.13;;;;;;;;;;5037200;28;20047;-65
2023/12/29 05:19:02;;;;;;;1.80;1.70;;;;;;;;;;5036222;28;20045;-62
2023/12/29 05:21:27;;;;;;;2.45;1.67;;;;;;;;;;5037362;28;20124;-66
2023/12/29 05:23:53;;;;;;;4.63;1.50;;;;;;;;;;5037164;28;20049;-64
2023/12/29 05:26:18;;;;;;;2.55;1.90;;;;;;;;;;5035622;28;20605;-66
2023/12/29 05:28:44;;;;;;;2.88;1.70;;;;;;;;;;5035298;28;20045;-65
2023/12/29 05:31:09;;;;;;;2.20;1.90;;;;;;;;;;5034619;28;20049;-67
2023/12/29 05:33:35;;;;;;;1.73;1.42;;;;;;;;;;5037360;28;20045;-68
2023/12/29 05:36:09;;;;;;;1.38;1.27;;;;;;;;;;5036024;28;20532;-65
2023/12/29 05:38:37;;;;;;;2.90;1.50;;;;;;;;;;5036863;28;20136;-65
2023/12/29 05:41:04;;;;;;;2.30;1.70;;;;;;;;;;5035261;28;20041;-64
2023/12/29 05:43:31;;;;;;;2.75;1.60;;;;;;;;;;5036963;28;20182;-64
2023/12/29 05:45:57;;;;;;;4.18;1.83;;;;;;;;;;5036343;28;20052;-64
2023/12/29 05:48:23;;;;;;;2.22;1.65;;;;;;;;;;5036890;28;20053;-66
2023/12/29 05:50:49;;;;;;;4.28;2.00;;;;;;;;;;5035870;28;20037;-66
2023/12/29 05:53:15;;;;;;;2.35;1.88;;;;;;;;;;5044836;28;20109;-67
2023/12/29 05:55:40;;;;;;;4.22;1.83;;;;;;;;;;5048026;28;20041;-65
2023/12/29 05:58:06;;;;;;;2.03;1.67;;;;;;;;;;5046341;28;20036;-64
2023/12/29 06:00:31;;;;;;;2.85;1.95;;;;;;;;;;5043539;28;20698;-65
2023/12/29 06:02:57;;;;;;;2.05;1.67;;;;;;;;;;5048723;28;20040;-66
2023/12/29 06:05:22;;;;;;;3.00;2.15;;;;;;;;;;5038815;28;20122;-66
2023/12/29 06:07:47;;;;;;;2.58;1.80;;;;;;;;;;5036272;28;20310;-65
2023/12/29 06:10:13;;;;;;;3.58;2.10;;;;;;;;;;5039436;28;20041;-66
2023/12/29 06:12:38;;;;;;;7.97;2.50;;;;;;;;;;5034940;28;21062;-65
2023/12/29 06:15:04;;;;;;;3.05;2.20;;;;;;;;;;5043083;28;20045;-64
2023/12/29 06:17:29;;;;;;;3.50;2.00;;;;;;;;;;5046589;28;20048;-63
2023/12/29 06:19:55;;;;;;;2.40;2.15;;;;;;;;;;5049537;28;20072;-66
2023/12/29 06:22:20;;;;;;;6.05;2.35;;;;;;;;;;5044898;28;20037;-63
2023/12/29 06:24:46;;;;;;;2.92;2.00;;;;;;;;;;5052428;28;20056;-67
2023/12/29 06:27:12;;;;;;;3.00;2.10;;;;;;;;;;5044501;28;20065;-66
2023/12/29 06:29:37;;;;;;;2.45;1.77;;;;;;;;;;5048701;28;20063;-67
2023/12/29 06:32:04;;;;;;;3.63;2.45;;;;;;;;;;5041984;28;20049;-63
2023/12/29 06:34:29;;;;;;;5.43;2.10;;;;;;;;;;5036325;28;20486;-66
2023/12/29 06:36:55;;;;;;;3.63;2.10;;;;;;;;;;5037149;28;20045;-65
2023/12/29 06:39:20;;;;;;;5.03;2.20;;;;;;;;;;5035709;28;20072;-66
2023/12/29 06:41:46;;;;;;;3.58;2.10;;;;;;;;;;5040152;28;20084;-67
2023/12/29 06:44:11;;;;;;;4.10;2.20;;;;;;;;;;5039109;28;20989;-63
2023/12/29 06:46:37;;;;;;;3.63;2.40;;;;;;;;;;5049853;28;20048;-64
2023/12/29 06:49:02;;;;;;;3.50;2.58;;;;;;;;;;5047183;28;20044;-66
2023/12/29 06:51:28;;;;;;;4.40;2.60;;;;;;;;;;5052629;28;20044;-66
2023/12/29 06:53:54;;;;;;;3.38;2.30;;;;;;;;;;5049476;28;20123;-66
2023/12/29 06:56:19;;;;;;;3.55;2.40;;;;;;;;;;5050591;28;20470;-63
2023/12/29 06:58:45;;;;;;;3.60;2.35;;;;;;;;;;5039251;28;20064;-63
2023/12/29 07:01:11;;;;;;;4.85;2.50;;;;;;;;;;5047540;28;20055;-66
2023/12/29 07:03:36;;;;;;;3.60;2.58;;;;;;;;;;5051805;28;20187;-64
2023/12/29 07:06:02;;;;;;;3.50;2.38;;;;;;;;;;5041011;28;20708;-66
2023/12/29 07:08:28;;;;;;;4.60;2.53;;;;;;;;;;5048995;28;20052;-65
2023/12/29 07:10:53;;;;;;;5.88;2.60;;;;;;;;;;5039258;28;20032;-67
2023/12/29 07:13:21;;;;;;;3.28;2.25;;;;;;;;;;5044350;28;20181;-66
2023/12/29 07:15:50;;;;;;;8.27;2.70;;;;;;;;;;5044933;28;20565;-66
2023/12/29 07:18:15;;;;;;;3.33;2.55;;;;;;;;;;5049562;28;20052;-67
2023/12/29 07:20:42;;;;;;;3.28;2.20;;;;;;;;;;5051197;28;20052;-67
2023/12/29 07:23:08;;;;;;;3.83;2.33;;;;;;;;;;5049773;28;20053;-68
2023/12/29 07:25:33;;;;;;;2.92;2.30;;;;;;;;;;5047518;28;20090;-65
2023/12/29 07:27:58;;;;;;;2.63;2.35;;;;;;;;;;5039991;28;20041;-64
2023/12/29 07:30:24;;;;;;;5.97;3.00;;;;;;;;;;5037160;28;20068;-64
2023/12/29 07:32:49;;;;;;;2.72;2.40;;;;;;;;;;5031936;28;20053;-68
2023/12/29 07:35:17;;;;;;;3.30;2.45;;;;;;;;;;5020458;28;20129;-65
2023/12/29 07:37:43;;;;;;;18.35;2.58;;;;;;;;;;5020181;28;20619;-67
2023/12/29 07:40:11;;;;;;;4.65;2.90;;;;;;;;;;5018459;28;20064;-64
2023/12/29 07:42:37;;;;;;;3.88;2.50;;;;;;;;;;5019824;28;20048;-66
2023/12/29 07:45:02;;;;;;;2.67;2.33;;;;;;;;;;5019269;28;20048;-65
2023/12/29 07:47:28;;;;;;;7.22;2.80;;;;;;;;;;5019957;28;20045;-64
2023/12/29 07:49:53;;;;;;;2.95;2.28;;;;;;;;;;5019732;28;20037;-67
2023/12/29 07:52:18;;;;;;;4.40;1.90;;;;;;;;;;5019566;28;20990;-65
2023/12/29 07:54:44;;;;;;;6.07;2.47;;;;;;;;;;5020082;28;20048;-70
2023/12/29 07:57:10;;;;;;;4.80;2.85;;;;;;;;;;5018672;28;20496;-65
2023/12/29 07:59:35;;;;;;;7.88;3.72;;;;;;;;;;5019054;28;20175;-66
2023/12/29 08:02:00;;;;;;;4.35;3.03;;;;;;;;;;5017914;28;20606;-66
2023/12/29 08:04:26;;;;;;;3.00;2.42;;;;;;;;;;5018739;28;20049;-65
2023/12/29 08:06:51;;;;;;;5.43;2.42;;;;;;;;;;5017459;28;20501;-66
2023/12/29 08:09:16;;;;;;;4.13;2.50;;;;;;;;;;5054559;28;20037;-68
2023/12/29 08:11:43;;;;;;;5.60;3.13;;;;;;;;;;5054745;28;20052;-66
2023/12/29 08:14:08;;;;;;;5.68;2.70;;;;;;;;;;5054003;28;20056;-69
2023/12/29 08:16:40;;;;;;;5.60;2.90;;;;;;;;;;5054186;28;20046;-64
2023/12/29 08:19:06;;;;;;;4.53;2.70;;;;;;;;;;5055171;28;20424;-65
2023/12/29 08:21:32;;;;;;;5.35;2.47;;;;;;;;;;5055112;28;20045;-64
2023/12/29 08:23:57;;;;;;;2.50;2.10;;;;;;;;;;5055640;28;20044;-67
2023/12/29 08:26:23;;;;;;;3.22;2.50;;;;;;;;;;5053918;28;20052;-64
2023/12/29 08:28:48;;;;;;;8.70;2.45;;;;;;;;;;5054855;28;20037;-66
2023/12/29 08:31:14;;;;;;;4.47;2.28;;;;;;;;;;5054582;28;20066;-66
2023/12/29 08:33:40;;;;;;;4.78;2.10;;;;;;;;;;5055794;28;20137;-67
2023/12/29 08:36:06;;;;;;;3.30;2.28;;;;;;;;;;5053591;28;20870;-66
2023/12/29 08:38:31;;;;;;;6.45;1.90;;;;;;;;;;5037128;28;20418;-64
2023/12/29 08:40:58;;;;;;;3.08;1.85;;;;;;;;;;5054553;28;20045;-67
2023/12/29 08:43:23;;;;;;;2.05;1.85;;;;;;;;;;5053317;28;20135;-65
2023/12/29 08:45:48;;;;;;;2.47;1.70;;;;;;;;;;5055203;28;20109;-65
2023/12/29 08:48:14;;;;;;;1.85;1.70;;;;;;;;;;5052291;28;20036;-66
2023/12/29 08:50:39;;;;;;;1.65;1.50;;;;;;;;;;5036356;28;20052;-65
2023/12/29 08:53:04;;;;;;;2.30;1.67;;;;;;;;;;5053164;28;20044;-65
2023/12/29 08:55:31;;;;;;;7.65;1.42;;;;;;;;;;5055024;28;20212;-66
2023/12/29 08:57:57;;;;;;;1.92;1.40;;;;;;;;;;5053829;28;20151;-64
2023/12/29 09:00:22;;;;;;;1.48;1.02;;;;;;;;;;5053809;28;20064;-67
2023/12/29 09:02:47;;;;;;;3.13;1.13;;;;;;;;;;5055464;28;20044;-66
2023/12/29 09:05:13;;;;;;;0.95;0.90;;;;;;;;;;5053570;28;20513;-67
2023/12/29 09:07:38;;;;;;;1.58;0.90;;;;;;;;;;5054526;28;20139;-67
2023/12/29 09:10:07;;;;;;;1.83;0.98;;;;;;;;;;5054165;28;20043;-65
2023/12/29 09:12:37;;;;;;;1.02;0.90;;;;;;;;;;5052962;28;20051;-66
2023/12/29 09:15:02;;;;;;;3.38;1.00;;;;;;;;;;5054181;28;20519;-66
2023/12/29 09:17:28;;;;;;;1.15;0.80;;;;;;;;;;5034833;28;20051;-69
2023/12/29 09:19:54;;;;;;;1.20;1.10;;;;;;;;;;5054593;28;20548;-67
2023/12/29 09:22:20;;;;;;;1.05;0.70;;;;;;;;;;5053129;28;20107;-66
2023/12/29 09:24:45;;;;;;;1.63;0.90;;;;;;;;;;5054781;28;20048;-67
2023/12/29 09:27:11;;;;;;;1.55;0.90;;;;;;;;;;5053894;28;20518;-64
2023/12/29 09:29:36;;;;;;;1.65;1.00;;;;;;;;;;5054974;28;20048;-68
2023/12/29 09:32:02;;;;;;;2.08;0.75;;;;;;;;;;5055444;28;20044;-67
2023/12/29 09:34:27;;;;;;;1.30;0.70;;;;;;;;;;5053348;28;20048;-68
2023/12/29 09:36:53;;;;;;;0.98;0.95;;;;;;;;;;5054969;28;20194;-73
2023/12/29 09:39:18;;;;;;;1.00;0.80;;;;;;;;;;5053598;28;20056;-68
2023/12/29 09:41:47;;;;;;;1.23;1.13;;;;;;;;;;5053934;28;20637;-67
2023/12/29 09:44:18;;;;;;;4.22;0.82;;;;;;;;;;5053494;28;20419;-68
2023/12/29 09:46:49;;;;;;;2.90;1.48;;;;;;;;;;5054302;28;20422;-66
2023/12/29 09:49:16;;;;;;;0.82;0.65;;;;;;;;;;5053254;28;20082;-67
2023/12/29 09:51:42;;;;;;;1.25;1.00;;;;;;;;;;5036224;28;20105;-67
2023/12/29 09:54:08;;;;;;;1.10;1.00;;;;;;;;;;5052791;28;20045;-66
2023/12/29 09:56:34;;;;;;;1.08;0.93;;;;;;;;;;5038206;28;20049;-68
2023/12/29 09:59:01;;;;;;;0.60;0.60;;;;;;;;;;5056243;28;20139;-67
2023/12/29 10:01:29;;;;;;;0.75;0.75;;;;;;;;;;5055869;28;20425;-67
2023/12/29 10:03:55;;;;;;;0.98;0.85;;;;;;;;;;5055802;28;20059;-68
2023/12/29 10:06:24;;;;;;;1.38;0.95;;;;;;;;;;5036643;28;20041;-64
2023/12/29 10:08:50;;;;;;;1.95;0.68;;;;;;;;;;5054880;28;20037;-66
2023/12/29 10:11:21;;;;;;;0.60;0.60;;;;;;;;;;5054841;28;20055;-68
2023/12/29 10:13:52;;;;;;;4.77;0.90;;;;;;;;;;5055992;28;20055;-65
2023/12/29 10:16:49;;;;;;;1.10;0.80;;;;;;;;;;5055166;28;20033;-66
2023/12/29 10:19:20;;;;;;;0.80;0.50;;;;;;;;;;5054368;28;20140;-64
2023/12/29 10:21:56;;;;;;;0.50;0.50;;;;;;;;;;5055593;28;20174;-67
2023/12/29 10:24:22;;;;;;;1.83;1.05;;;;;;;;;;5056441;28;20056;-67
2023/12/29 10:26:49;;;;;;;0.60;0.60;;;;;;;;;;5055948;28;20075;-66
2023/12/29 10:29:15;;;;;;;0.77;0.75;;;;;;;;;;5055602;28;20056;-66
2023/12/29 10:31:41;;;;;;;0.90;0.82;;;;;;;;;;5060192;28;20057;-65
2023/12/29 10:34:30;;;;;;;1.38;0.80;;;;;;;;;;5060119;28;20048;-66
2023/12/29 10:36:57;;;;;;;0.70;0.68;;;;;;;;;;5058153;28;20051;-65
2023/12/29 10:39:23;;;;;;;0.65;0.50;;;;;;;;;;5059162;28;20041;-68
2023/12/29 10:41:49;;;;;;;0.50;0.50;;;;;;;;;;5060034;28;20102;-66
2023/12/29 10:44:16;;;;;;;0.60;0.60;;;;;;;;;;5057327;28;20044;-66
2023/12/29 10:46:41;;;;;;;0.93;0.73;;;;;;;;;;5059902;28;20340;-69
2023/12/29 10:49:09;;;;;;;0.90;0.57;;;;;;;;;;5058903;28;20117;-67
2023/12/29 10:51:35;;;;;;;1.75;0.47;;;;;;;;;;5059230;28;20071;-67
2023/12/29 10:54:00;;;;;;;0.80;0.80;;;;;;;;;;5059474;28;20067;-67
2023/12/29 10:56:26;;;;;;;0.70;0.70;;;;;;;;;;5040442;28;20760;-68
2023/12/29 10:59:03;;;;;;;1.23;1.10;;;;;;;;;;5059720;28;20044;-66
2023/12/29 11:01:30;;;;;;;1.17;0.80;;;;;;;;;;5058003;28;20415;-67
2023/12/29 11:04:04;;;;;;;0.93;0.60;;;;;;;;;;5044569;28;20053;-65
2023/12/29 11:06:38;;;;;;;1.63;0.68;;;;;;;;;;5021419;28;20057;-65
2023/12/29 11:09:05;;;;;;;0.68;0.60;;;;;;;;;;5022140;28;20049;-67
2023/12/29 11:11:31;;;;;;;0.32;0.32;;;;;;;;;;5019438;28;20082;-66
2023/12/29 11:13:58;;;;;;;0.45;0.45;;;;;;;;;;5026881;28;20037;-64
2023/12/29 11:16:24;;;;;;;0.60;0.60;;;;;;;;;;5022910;28;20041;-67
2023/12/29 11:18:52;;;;;;;1.65;0.50;;;;;;;;;;5026853;28;20052;-66
2023/12/29 11:21:21;;;;;;;0.32;0.32;;;;;;;;;;5023970;28;20122;-64
2023/12/29 11:23:47;;;;;;;0.22;0.22;;;;;;;;;;5021514;28;20045;-63
2023/12/29 11:26:12;;;;;;;0.52;0.52;;;;;;;;;;5020712;28;20843;-68
2023/12/29 11:28:38;;;;;;;0.50;0.50;;;;;;;;;;5040203;28;20048;-66
2023/12/29 11:31:03;;;;;;;1.52;0.90;;;;;;;;;;5053782;28;20056;-66
2023/12/29 11:33:34;;;;;;;0.50;0.50;;;;;;;;;;5048432;28;20045;-65
2023/12/29 11:36:10;;;;;;;0.40;0.40;;;;;;;;;;5054804;28;20040;-66
2023/12/29 11:38:49;;;;;;;0.60;0.57;;;;;;;;;;5049831;28;20044;-65
2023/12/29 11:41:37;;;;;;;0.70;0.38;;;;;;;;;;5052944;28;20056;-65
2023/12/29 11:44:02;;;;;;;0.38;0.38;;;;;;;;;;5043817;28;20048;-67
2023/12/29 11:46:39;;;;;;;0.45;0.45;;;;;;;;;;5041959;28;20051;-65
2023/12/29 11:49:05;;;;;;;0.50;0.50;;;;;;;;;;5050657;28;20960;-65
2023/12/29 11:51:44;;;;;;;0.40;0.40;;;;;;;;;;5050352;28;20479;-66
2023/12/29 11:54:10;;;;;;;0.63;0.32;;;;;;;;;;5042422;28;20045;-64
2023/12/29 11:56:36;;;;;;;0.52;0.52;;;;;;;;;;5043684;28;20044;-65
2023/12/29 11:59:22;;;;;;;0.60;0.50;;;;;;;;;;5038353;28;20439;-66
2023/12/29 12:01:55;;;;;;;0.40;0.40;;;;;;;;;;5041657;28;20135;-68
2023/12/29 12:04:37;;;;;;;0.47;0.47;;;;;;;;;;5039477;28;20142;-68
2023/12/29 12:07:05;;;;;;;0.70;0.60;;;;;;;;;;5039232;28;20226;-65
2023/12/29 12:09:30;;;;;;;5.20;0.50;;;;;;;;;;5037501;28;20087;-67
2023/12/29 12:11:56;;;;;;;0.30;0.30;;;;;;;;;;5048063;28;20151;-65
2023/12/29 12:14:48;;;;;;;0.75;0.65;;;;;;;;;;5047421;28;20053;-64
2023/12/29 12:17:30;;;;;;;0.32;0.32;;;;;;;;;;5050067;28;20605;-66
2023/12/29 12:20:02;;;;;;;0.40;0.40;;;;;;;;;;5043571;28;20051;-68
2023/12/29 12:22:30;;;;;;;1.63;0.40;;;;;;;;;;5045604;28;20052;-67
2023/12/29 12:24:58;;;;;;;0.40;0.40;;;;;;;;;;5044045;28;20063;-67
2023/12/29 12:27:25;;;;;;;0.52;0.52;;;;;;;;;;5036662;28;20138;-66
2023/12/29 12:30:01;;;;;;;0.30;0.30;;;;;;;;;;5037966;28;20060;-65
2023/12/29 12:32:27;;;;;;;0.35;0.35;;;;;;;;;;5037630;28;20463;-67
2023/12/29 12:34:53;;;;;;;2.72;1.55;;;;;;;;;;5037876;28;20055;-66
2023/12/29 12:37:20;;;;;;;0.52;0.30;;;;;;;;;;5036424;28;20041;-65
2023/12/29 12:39:45;;;;;;;0.40;0.40;;;;;;;;;;5037872;28;20122;-66
2023/12/29 12:42:11;;;;;;;0.35;0.30;;;;;;;;;;5042846;28;20068;-66
2023/12/29 12:44:42;;;;;;;0.40;0.40;;;;;;;;;;5052762;28;20045;-66
2023/12/29 12:47:10;;;;;;;0.40;0.40;;;;;;;;;;5039354;28;20087;-67
2023/12/29 12:49:36;;;;;;;0.40;0.40;;;;;;;;;;5037192;28;20129;-67
2023/12/29 12:52:02;;;;;;;0.30;0.30;;;;;;;;;;5038091;28;20183;-66
2023/12/29 12:54:28;;;;;;;0.43;0.43;;;;;;;;;;5037961;28;20041;-67
2023/12/29 12:56:54;;;;;;;3.45;0.30;;;;;;;;;;5039077;28;20049;-67
2023/12/29 12:59:20;;;;;;;0.50;0.50;;;;;;;;;;5035780;28;20110;-64
2023/12/29 13:01:46;;;;;;;1.08;0.40;;;;;;;;;;5037483;28;20824;-63
2023/12/29 13:04:12;;;;;;;0.63;0.45;;;;;;;;;;5038368;28;20052;-66
2023/12/29 13:06:46;;;;;;;0.77;0.55;;;;;;;;;;5037059;28;20725;-67
2023/12/29 13:09:12;;;;;;;0.47;0.47;;;;;;;;;;5037658;28;20110;-67
2023/12/29 13:11:40;;;;;;;0.50;0.50;;;;;;;;;;5035941;28;20160;-67
2023/12/29 13:14:07;;;;;;;0.60;0.60;;;;;;;;;;5036435;28;20419;-65
2023/12/29 13:16:35;;;;;;;0.60;0.60;;;;;;;;;;5037794;28;20049;-68
2023/12/29 13:19:23;;;;;;;0.40;0.40;;;;;;;;;;5037699;28;20048;-69
2023/12/29 13:21:55;;;;;;;0.30;0.30;;;;;;;;;;5036557;28;20047;-66
2023/12/29 13:24:25;;;;;;;1.43;0.33;;;;;;;;;;5035883;28;21009;-66
2023/12/29 13:26:54;;;;;;;0.50;0.50;;;;;;;;;;5037411;28;20302;-67
2023/12/29 13:29:22;;;;;;;0.70;0.70;;;;;;;;;;5035918;28;20059;-67
2023/12/29 13:31:53;;;;;;;0.55;0.55;;;;;;;;;;5036831;28;20047;-67
2023/12/29 13:34:34;;;;;;;0.35;0.35;;;;;;;;;;5036412;28;20052;-67
2023/12/29 13:37:15;;;;;;;0.45;0.45;;;;;;;;;;5036528;28;20048;-67
2023/12/29 13:39:50;;;;;;;0.43;0.40;;;;;;;;;;5036869;28;20622;-66
2023/12/29 13:42:17;;;;;;;1.55;0.50;;;;;;;;;;5037056;28;20059;-67
2023/12/29 13:44:44;;;;;;;0.40;0.40;;;;;;;;;;5040166;28;20078;-64
2023/12/29 13:47:10;;;;;;;0.88;0.45;;;;;;;;;;5038560;28;20434;-69
2023/12/29 13:49:37;;;;;;;0.20;0.20;;;;;;;;;;5039473;28;20037;-64
2023/12/29 13:52:03;;;;;;;0.40;0.40;;;;;;;;;;5025688;28;20052;-64
2023/12/29 13:54:29;;;;;;;1.10;0.40;;;;;;;;;;5035046;28;20076;-66
2023/12/29 13:56:56;;;;;;;1.02;0.73;;;;;;;;;;5036604;28;20140;-65
2023/12/29 13:59:32;;;;;;;0.90;0.70;;;;;;;;;;5032939;28;20072;-66
2023/12/29 14:02:20;;;;;;;0.70;0.70;;;;;;;;;;5019356;28;20539;-67
2023/12/29 14:04:45;;;;;;;0.30;0.30;;;;;;;;;;5023028;28;20492;-66
2023/12/29 14:07:11;;;;;;;0.50;0.50;;;;;;;;;;5035517;28;20052;-66
2023/12/29 14:09:37;;;;;;;0.40;0.40;;;;;;;;;;5027619;28;20059;-65
2023/12/29 14:12:02;;;;;;;0.35;0.35;;;;;;;;;;5024072;28;20041;-66
2023/12/29 14:14:28;;;;;;;0.50;0.50;;;;;;;;;;5030638;28;20044;-66
2023/12/29 14:16:53;;;;;;;0.57;0.57;;;;;;;;;;5022187;28;20519;-66
2023/12/29 14:19:19;;;;;;;1.60;0.77;;;;;;;;;;5024175;28;20045;-68
2023/12/29 14:21:52;;;;;;;0.65;0.40;;;;;;;;;;5022026;28;21899;-63
2023/12/29 14:24:18;;;;;;;0.30;0.30;;;;;;;;;;5024801;28;20068;-67
2023/12/29 14:26:52;;;;;;;0.75;0.73;;;;;;;;;;5021998;28;20503;-66
2023/12/29 14:29:18;;;;;;;0.40;0.40;;;;;;;;;;5023449;28;20137;-67
2023/12/29 14:31:44;;;;;;;0.57;0.57;;;;;;;;;;5024520;28;20132;-65
2023/12/29 14:34:12;;;;;;;5.93;0.63;;;;;;;;;;5023275;28;20041;-65
2023/12/29 14:36:39;;;;;;;0.80;0.80;;;;;;;;;;5021788;28;20062;-65
2023/12/29 14:39:06;;;;;;;0.68;0.68;;;;;;;;;;5025813;28;20492;-63
2023/12/29 14:41:32;;;;;;;0.82;0.40;;;;;;;;;;5020240;28;20065;-66
2023/12/29 14:43:57;;;;;;;0.80;0.50;;;;;;;;;;5027949;28;20459;-66